Time;durP1;ratioP1;P1;durP2;ratioP2;P2;SDS_P1;SDS_P2;PMS_P1;PMS_P2;Temp;Humidity;BMP_temperature;BMP_pressure;BME280_temperature;BME280_humidity;BME280_pressure;Samples;Min_cycle;Max_cycle;Signal;HPM_P1;HPM_P2
2021/11/25 00:00:03;;;;;;;27.13;9.32;;;;;;;;;;5014687;28;20509;-65
2021/11/25 00:02:31;;;;;;;24.20;9.13;;;;;;;;;;5017452;28;20096;-65
2021/11/25 00:05:01;;;;;;;24.17;9.82;;;;;;;;;;5015693;28;20050;-66
2021/11/25 00:07:30;;;;;;;21.02;8.60;;;;;;;;;;5026096;28;20481;-65
2021/11/25 00:09:58;;;;;;;19.70;8.52;;;;;;;;;;5014324;28;20081;-65
2021/11/25 00:12:27;;;;;;;22.58;8.80;;;;;;;;;;5009204;28;20470;-65
2021/11/25 00:14:55;;;;;;;23.58;9.10;;;;;;;;;;5011467;28;20137;-66
2021/11/25 00:17:23;;;;;;;25.25;8.98;;;;;;;;;;5024121;28;20156;-65
2021/11/25 00:19:52;;;;;;;23.50;8.60;;;;;;;;;;5020353;28;20493;-65
2021/11/25 00:22:22;;;;;;;15.63;7.72;;;;;;;;;;5029457;28;20224;-65
2021/11/25 00:24:50;;;;;;;24.55;8.98;;;;;;;;;;5015694;28;20042;-64
2021/11/25 00:27:18;;;;;;;27.85;9.80;;;;;;;;;;5024938;28;20140;-65
2021/11/25 00:29:47;;;;;;;22.08;9.45;;;;;;;;;;5020724;28;20394;-65
2021/11/25 00:32:15;;;;;;;22.55;10.07;;;;;;;;;;5012118;28;20257;-65
2021/11/25 00:34:43;;;;;;;24.05;8.95;;;;;;;;;;5011699;28;20042;-64
2021/11/25 00:37:12;;;;;;;26.73;9.02;;;;;;;;;;5015870;28;20080;-64
2021/11/25 00:39:42;;;;;;;27.35;9.73;;;;;;;;;;5020020;28;20133;-65
2021/11/25 00:42:10;;;;;;;20.63;8.48;;;;;;;;;;5021790;28;20511;-65
2021/11/25 00:44:39;;;;;;;25.58;9.50;;;;;;;;;;5028256;28;20050;-65
2021/11/25 00:47:08;;;;;;;24.10;10.80;;;;;;;;;;5013146;28;20056;-65
2021/11/25 00:49:36;;;;;;;25.38;7.90;;;;;;;;;;5011296;28;20046;-65
2021/11/25 00:52:05;;;;;;;24.02;9.27;;;;;;;;;;5010747;28;20589;-65
2021/11/25 00:54:33;;;;;;;24.92;8.95;;;;;;;;;;5013697;28;20136;-67
2021/11/25 00:57:03;;;;;;;23.50;9.10;;;;;;;;;;5013627;28;20068;-66
2021/11/25 00:59:31;;;;;;;27.48;9.60;;;;;;;;;;5016583;28;20085;-65
2021/11/25 01:01:59;;;;;;;25.30;9.70;;;;;;;;;;5018517;28;20084;-65
2021/11/25 01:04:28;;;;;;;24.13;9.85;;;;;;;;;;5026798;28;20489;-65
2021/11/25 01:06:56;;;;;;;31.00;10.27;;;;;;;;;;5015796;28;20177;-66
2021/11/25 01:09:25;;;;;;;20.90;9.50;;;;;;;;;;5014916;28;20133;-66
2021/11/25 01:12:01;;;;;;;25.35;10.20;;;;;;;;;;5018191;28;20053;-65
2021/11/25 01:14:31;;;;;;;25.95;9.70;;;;;;;;;;5020521;28;20053;-65
2021/11/25 01:16:59;;;;;;;30.13;10.50;;;;;;;;;;5014199;28;20511;-65
2021/11/25 01:19:28;;;;;;;23.58;9.35;;;;;;;;;;5015675;28;20128;-65
2021/11/25 01:21:56;;;;;;;26.52;10.30;;;;;;;;;;5018418;28;20072;-67
2021/11/25 01:24:25;;;;;;;27.50;9.95;;;;;;;;;;4994872;28;20381;-65
2021/11/25 01:26:55;;;;;;;23.00;10.60;;;;;;;;;;5013628;28;20424;-65
2021/11/25 01:29:23;;;;;;;31.85;10.35;;;;;;;;;;4962675;28;20183;-65
2021/11/25 01:31:53;;;;;;;24.70;9.80;;;;;;;;;;323212;28;10021664;-65
2021/11/25 01:34:22;;;;;;;27.42;9.60;;;;;;;;;;5013206;28;20516;-66
2021/11/25 01:36:50;;;;;;;27.88;9.57;;;;;;;;;;5018794;28;20141;-64
2021/11/25 01:39:18;;;;;;;34.20;10.63;;;;;;;;;;5015061;28;20144;-65
2021/11/25 01:41:47;;;;;;;29.17;10.60;;;;;;;;;;5010710;28;20049;-65
2021/11/25 01:44:17;;;;;;;28.95;10.85;;;;;;;;;;5010030;28;20049;-65
2021/11/25 01:46:46;;;;;;;24.27;9.02;;;;;;;;;;5006866;28;20041;-65
2021/11/25 01:49:16;;;;;;;27.40;9.27;;;;;;;;;;5009806;28;20076;-65
2021/11/25 01:51:44;;;;;;;26.80;10.68;;;;;;;;;;5009407;28;20651;-65
2021/11/25 01:54:13;;;;;;;35.45;11.48;;;;;;;;;;5015654;28;20055;-65
2021/11/25 01:56:41;;;;;;;29.95;11.00;;;;;;;;;;5017060;28;20058;-65
2021/11/25 01:59:09;;;;;;;29.10;11.32;;;;;;;;;;5007765;28;20145;-65
2021/11/25 02:01:38;;;;;;;26.75;10.90;;;;;;;;;;5019792;28;20048;-65
2021/11/25 02:04:08;;;;;;;26.05;10.45;;;;;;;;;;5008324;28;20060;-65
2021/11/25 02:06:41;;;;;;;28.88;10.50;;;;;;;;;;5013303;28;20572;-65
2021/11/25 02:09:10;;;;;;;28.58;10.50;;;;;;;;;;5010031;28;20409;-65
2021/11/25 02:11:39;;;;;;;23.98;10.30;;;;;;;;;;5008796;28;20042;-65
2021/11/25 02:14:07;;;;;;;33.83;11.57;;;;;;;;;;5008392;28;20413;-65
2021/11/25 02:16:37;;;;;;;26.27;9.32;;;;;;;;;;5010538;28;20042;-65
2021/11/25 02:19:05;;;;;;;27.70;10.82;;;;;;;;;;5021528;28;20065;-66
2021/11/25 02:21:36;;;;;;;24.73;10.05;;;;;;;;;;5010625;28;20042;-68
2021/11/25 02:24:05;;;;;;;29.02;10.23;;;;;;;;;;4999949;28;20046;-65
2021/11/25 02:26:34;;;;;;;34.10;11.85;;;;;;;;;;5014354;28;20152;-65
2021/11/25 02:29:02;;;;;;;27.95;10.55;;;;;;;;;;5008686;28;20053;-65
2021/11/25 02:31:30;;;;;;;32.05;11.15;;;;;;;;;;5009840;28;20050;-65
2021/11/25 02:33:59;;;;;;;34.63;12.45;;;;;;;;;;5010964;28;20046;-65
2021/11/25 02:36:27;;;;;;;30.25;11.25;;;;;;;;;;5012611;28;20117;-65
2021/11/25 02:38:58;;;;;;;34.08;11.50;;;;;;;;;;5013014;28;20058;-66
2021/11/25 02:41:27;;;;;;;32.20;12.23;;;;;;;;;;5029642;28;20053;-65
2021/11/25 02:43:57;;;;;;;31.63;10.40;;;;;;;;;;5021330;28;20490;-66
2021/11/25 02:46:25;;;;;;;28.05;10.00;;;;;;;;;;5015545;28;20050;-65
2021/11/25 02:48:54;;;;;;;27.77;11.73;;;;;;;;;;5007937;28;20050;-65
2021/11/25 02:51:24;;;;;;;26.50;9.82;;;;;;;;;;5023833;28;20042;-64
2021/11/25 02:53:53;;;;;;;27.58;10.88;;;;;;;;;;5010648;28;20054;-65
2021/11/25 02:56:24;;;;;;;26.75;10.20;;;;;;;;;;5009899;28;21636;-65
2021/11/25 02:58:53;;;;;;;28.33;10.73;;;;;;;;;;5014568;28;20049;-65
2021/11/25 03:01:24;;;;;;;26.25;9.55;;;;;;;;;;5000140;28;20077;-65
2021/11/25 03:03:52;;;;;;;26.00;9.65;;;;;;;;;;5009204;28;20109;-65
2021/11/25 03:06:21;;;;;;;26.15;9.48;;;;;;;;;;5009229;28;20054;-65
2021/11/25 03:08:49;;;;;;;32.65;11.20;;;;;;;;;;5018066;28;20141;-64
2021/11/25 03:11:19;;;;;;;30.20;10.57;;;;;;;;;;5008580;28;20124;-65
2021/11/25 03:13:50;;;;;;;30.23;11.50;;;;;;;;;;5022478;28;20136;-64
2021/11/25 03:16:19;;;;;;;23.88;10.07;;;;;;;;;;5014155;28;20415;-65
2021/11/25 03:18:48;;;;;;;26.25;9.85;;;;;;;;;;5022060;28;20132;-65
2021/11/25 03:21:17;;;;;;;27.67;9.15;;;;;;;;;;5014391;28;20136;-65
2021/11/25 03:23:47;;;;;;;22.38;8.25;;;;;;;;;;5018264;28;20061;-65
2021/11/25 03:26:17;;;;;;;22.83;9.05;;;;;;;;;;5016489;28;20108;-65
2021/11/25 03:28:45;;;;;;;25.50;10.52;;;;;;;;;;5020634;28;20413;-64
2021/11/25 03:31:16;;;;;;;32.15;9.90;;;;;;;;;;5012007;28;20060;-66
2021/11/25 03:33:45;;;;;;;21.90;8.80;;;;;;;;;;5010829;28;20186;-65
2021/11/25 03:36:13;;;;;;;25.73;9.40;;;;;;;;;;5021451;28;20089;-65
2021/11/25 03:38:42;;;;;;;30.23;10.07;;;;;;;;;;5023380;28;20133;-65
2021/11/25 03:41:11;;;;;;;23.42;9.40;;;;;;;;;;5021494;28;20050;-66
2021/11/25 03:43:39;;;;;;;27.63;9.77;;;;;;;;;;5021141;28;20077;-65
2021/11/25 03:46:08;;;;;;;24.20;10.52;;;;;;;;;;5021598;28;20042;-65
2021/11/25 03:48:38;;;;;;;28.10;10.15;;;;;;;;;;5020205;28;20050;-65
2021/11/25 03:51:07;;;;;;;28.33;10.13;;;;;;;;;;5023842;28;20120;-66
2021/11/25 03:53:37;;;;;;;24.55;9.55;;;;;;;;;;5022081;28;20056;-66
2021/11/25 03:56:06;;;;;;;30.00;11.32;;;;;;;;;;5018690;28;20084;-65
2021/11/25 03:58:34;;;;;;;25.65;10.38;;;;;;;;;;5023382;28;20057;-65
2021/11/25 04:01:03;;;;;;;28.40;10.20;;;;;;;;;;5015591;28;20495;-65
2021/11/25 04:03:31;;;;;;;27.10;10.80;;;;;;;;;;5013590;28;20412;-64
2021/11/25 04:06:01;;;;;;;33.40;11.27;;;;;;;;;;5011970;28;20129;-65
2021/11/25 04:08:29;;;;;;;30.83;11.32;;;;;;;;;;5010680;28;20084;-65
2021/11/25 04:10:57;;;;;;;28.85;10.10;;;;;;;;;;5021453;28;20072;-65
2021/11/25 04:13:26;;;;;;;25.80;10.45;;;;;;;;;;5015121;28;20152;-65
2021/11/25 04:15:54;;;;;;;24.95;9.68;;;;;;;;;;5021135;28;20054;-66
2021/11/25 04:18:23;;;;;;;27.08;10.32;;;;;;;;;;5015250;28;20046;-65
2021/11/25 04:20:51;;;;;;;25.50;9.77;;;;;;;;;;5012737;28;20226;-64
2021/11/25 04:23:21;;;;;;;27.55;10.00;;;;;;;;;;5010627;28;20041;-65
2021/11/25 04:25:49;;;;;;;27.08;9.88;;;;;;;;;;5013309;28;20413;-65
2021/11/25 04:28:17;;;;;;;25.50;9.32;;;;;;;;;;5020066;28;20075;-65
2021/11/25 04:30:54;;;;;;;28.35;9.55;;;;;;;;;;5011718;28;20093;-65
2021/11/25 04:36:09;;;;;;;24.75;9.32;;;;;;;;;;5017395;28;20419;-65
2021/11/25 04:38:39;;;;;;;26.05;10.07;;;;;;;;;;5017281;28;20052;-65
2021/11/25 04:41:08;;;;;;;22.38;8.85;;;;;;;;;;5015147;28;20274;-65
2021/11/25 04:43:36;;;;;;;27.30;9.07;;;;;;;;;;5021512;28;20172;-65
2021/11/25 04:46:05;;;;;;;24.63;9.82;;;;;;;;;;5018875;28;20473;-65
2021/11/25 04:48:34;;;;;;;24.48;8.80;;;;;;;;;;5021543;28;20077;-65
2021/11/25 04:51:03;;;;;;;21.95;8.30;;;;;;;;;;5011500;28;20050;-65
2021/11/25 04:53:31;;;;;;;21.52;7.68;;;;;;;;;;5014336;28;20465;-65
2021/11/25 04:56:01;;;;;;;20.48;8.05;;;;;;;;;;5011176;28;20092;-65
2021/11/25 04:58:29;;;;;;;19.17;8.63;;;;;;;;;;5012029;28;20053;-65
2021/11/25 05:00:58;;;;;;;25.05;9.63;;;;;;;;;;5014757;28;20049;-65
2021/11/25 05:03:27;;;;;;;22.42;8.35;;;;;;;;;;5022235;28;20061;-68
2021/11/25 05:05:55;;;;;;;25.42;9.23;;;;;;;;;;5029307;28;20520;-66
2021/11/25 05:08:24;;;;;;;26.65;9.77;;;;;;;;;;5014414;28;20049;-65
2021/11/25 05:10:52;;;;;;;25.30;9.98;;;;;;;;;;5011181;28;20074;-65
2021/11/25 05:13:22;;;;;;;27.33;9.63;;;;;;;;;;5017097;28;20064;-65
2021/11/25 05:15:50;;;;;;;26.48;9.38;;;;;;;;;;5022792;28;20497;-65
2021/11/25 05:18:19;;;;;;;20.45;8.68;;;;;;;;;;5010909;28;20103;-68
2021/11/25 05:20:47;;;;;;;22.63;8.57;;;;;;;;;;5009577;28;20144;-64
2021/11/25 05:23:16;;;;;;;25.00;9.77;;;;;;;;;;5009538;28;20346;-66
2021/11/25 05:25:44;;;;;;;22.25;7.82;;;;;;;;;;5010313;28;20124;-65
2021/11/25 05:28:13;;;;;;;28.75;10.13;;;;;;;;;;5020155;28;20107;-65
2021/11/25 05:30:43;;;;;;;22.52;8.98;;;;;;;;;;5013198;28;20065;-65
2021/11/25 05:33:11;;;;;;;20.55;8.45;;;;;;;;;;5014431;28;20046;-68
2021/11/25 05:35:41;;;;;;;25.27;9.25;;;;;;;;;;5011107;28;20085;-65
2021/11/25 05:38:10;;;;;;;21.80;8.80;;;;;;;;;;5015057;28;20145;-66
2021/11/25 05:40:38;;;;;;;26.08;8.60;;;;;;;;;;5014263;28;20049;-66
2021/11/25 05:43:07;;;;;;;19.40;7.63;;;;;;;;;;5010288;28;20058;-65
2021/11/25 05:45:35;;;;;;;24.85;8.23;;;;;;;;;;5023879;28;20042;-65
2021/11/25 05:48:05;;;;;;;17.55;8.57;;;;;;;;;;5027813;28;20140;-65
2021/11/25 05:50:34;;;;;;;20.83;8.95;;;;;;;;;;5009770;28;20077;-63
2021/11/25 05:53:03;;;;;;;24.92;9.88;;;;;;;;;;5008117;28;20437;-63
2021/11/25 05:55:33;;;;;;;24.23;9.48;;;;;;;;;;5014748;28;20054;-64
2021/11/25 05:58:01;;;;;;;20.00;8.50;;;;;;;;;;5013819;28;20493;-64
2021/11/25 06:00:30;;;;;;;23.58;8.63;;;;;;;;;;5025089;28;20046;-65
2021/11/25 06:02:58;;;;;;;24.15;8.57;;;;;;;;;;5015679;28;20054;-64
2021/11/25 06:05:28;;;;;;;23.67;8.75;;;;;;;;;;5003051;28;20049;-66
2021/11/25 06:07:59;;;;;;;22.90;8.70;;;;;;;;;;5005832;28;20061;-66
2021/11/25 06:10:28;;;;;;;16.52;7.65;;;;;;;;;;5005460;28;20570;-65
2021/11/25 06:12:57;;;;;;;21.77;8.68;;;;;;;;;;5004715;28;20395;-66
2021/11/25 06:15:25;;;;;;;18.50;7.00;;;;;;;;;;5007564;28;20045;-65
2021/11/25 06:17:54;;;;;;;19.05;6.75;;;;;;;;;;5005795;28;20095;-65
2021/11/25 06:20:22;;;;;;;21.25;7.57;;;;;;;;;;5006392;28;20052;-64
2021/11/25 06:22:54;;;;;;;18.92;6.97;;;;;;;;;;5003552;28;20371;-65
2021/11/25 06:25:23;;;;;;;23.13;8.63;;;;;;;;;;5011855;28;20484;-65
2021/11/25 06:27:52;;;;;;;20.90;7.15;;;;;;;;;;5011466;28;20486;-65
2021/11/25 06:30:21;;;;;;;20.75;7.60;;;;;;;;;;5009924;28;20462;-65
2021/11/25 06:32:50;;;;;;;19.05;7.65;;;;;;;;;;4997203;28;20145;-65
2021/11/25 06:35:19;;;;;;;23.52;8.23;;;;;;;;;;5012811;28;20515;-65
2021/11/25 06:37:49;;;;;;;22.42;8.45;;;;;;;;;;5001670;28;20095;-66
2021/11/25 06:40:19;;;;;;;24.25;8.18;;;;;;;;;;5004352;28;20434;-65
2021/11/25 06:42:47;;;;;;;22.27;8.40;;;;;;;;;;4998314;28;20061;-66
2021/11/25 06:45:16;;;;;;;22.67;8.48;;;;;;;;;;5002338;28;20133;-65
2021/11/25 06:47:47;;;;;;;21.38;9.50;;;;;;;;;;5003380;28;20050;-64
2021/11/25 06:50:16;;;;;;;19.10;8.40;;;;;;;;;;5004308;28;20050;-67
2021/11/25 06:52:44;;;;;;;19.75;8.13;;;;;;;;;;5008489;28;20046;-64
2021/11/25 06:55:13;;;;;;;24.20;9.50;;;;;;;;;;5008693;28;20469;-64
2021/11/25 06:57:43;;;;;;;22.38;8.18;;;;;;;;;;5002486;28;20501;-64
2021/11/25 07:00:14;;;;;;;25.17;8.18;;;;;;;;;;5007424;28;20053;-64
2021/11/25 07:02:44;;;;;;;22.38;6.95;;;;;;;;;;5001751;28;20533;-64
2021/11/25 07:05:13;;;;;;;25.25;8.38;;;;;;;;;;5013534;28;20055;-64
2021/11/25 07:07:42;;;;;;;20.67;7.55;;;;;;;;;;5008463;28;20053;-64
2021/11/25 07:10:12;;;;;;;22.60;7.85;;;;;;;;;;5008027;28;20060;-64
2021/11/25 07:12:40;;;;;;;19.52;6.95;;;;;;;;;;5018399;28;20145;-64
2021/11/25 07:15:12;;;;;;;22.00;8.02;;;;;;;;;;5020344;28;20125;-64
2021/11/25 07:17:41;;;;;;;21.48;7.88;;;;;;;;;;5019556;28;20514;-65
2021/11/25 07:20:10;;;;;;;18.80;7.25;;;;;;;;;;5016072;28;20137;-65
2021/11/25 07:22:39;;;;;;;24.13;7.22;;;;;;;;;;5011833;28;20046;-65
2021/11/25 07:25:08;;;;;;;23.13;8.40;;;;;;;;;;5015625;28;20080;-65
2021/11/25 07:27:36;;;;;;;20.38;7.97;;;;;;;;;;5016011;28;20416;-65
2021/11/25 07:30:06;;;;;;;22.33;8.10;;;;;;;;;;5030059;28;20497;-64
2021/11/25 07:32:37;;;;;;;19.65;8.13;;;;;;;;;;5021327;28;20113;-65
2021/11/25 07:35:06;;;;;;;21.63;8.48;;;;;;;;;;5016226;28;20049;-65
2021/11/25 07:37:35;;;;;;;22.90;9.00;;;;;;;;;;5010231;28;20092;-65
2021/11/25 07:40:04;;;;;;;17.30;6.93;;;;;;;;;;5012195;28;20137;-65
2021/11/25 07:42:33;;;;;;;24.45;7.68;;;;;;;;;;4998172;28;20053;-65
2021/11/25 07:45:02;;;;;;;16.52;7.35;;;;;;;;;;5017072;28;20046;-64
2021/11/25 07:47:34;;;;;;;22.13;8.07;;;;;;;;;;5011535;28;20560;-64
2021/11/25 07:50:04;;;;;;;20.27;8.25;;;;;;;;;;5015422;28;20519;-64
2021/11/25 07:52:33;;;;;;;18.40;7.82;;;;;;;;;;5011242;28;20148;-65
2021/11/25 07:55:01;;;;;;;18.60;8.15;;;;;;;;;;5010959;28;20330;-65
2021/11/25 07:57:30;;;;;;;19.65;7.88;;;;;;;;;;5011983;28;20085;-65
2021/11/25 07:59:59;;;;;;;20.27;7.78;;;;;;;;;;5012388;28;20061;-65
2021/11/25 08:02:27;;;;;;;18.90;7.85;;;;;;;;;;5025111;28;20042;-65
2021/11/25 08:04:56;;;;;;;18.80;7.10;;;;;;;;;;4996044;28;20137;-65
2021/11/25 08:07:26;;;;;;;22.08;6.53;;;;;;;;;;5029404;28;20063;-65
2021/11/25 08:09:54;;;;;;;16.63;5.90;;;;;;;;;;5023601;28;20061;-65
2021/11/25 08:12:27;;;;;;;22.92;8.52;;;;;;;;;;5007090;28;20054;-65
2021/11/25 08:14:56;;;;;;;16.25;7.07;;;;;;;;;;5027426;28;20149;-66
2021/11/25 08:17:25;;;;;;;19.98;7.95;;;;;;;;;;5012324;28;20133;-64
2021/11/25 08:19:54;;;;;;;18.30;7.07;;;;;;;;;;5011524;28;20129;-65
2021/11/25 08:22:23;;;;;;;22.58;6.88;;;;;;;;;;5017835;28;20041;-65
2021/11/25 08:24:53;;;;;;;27.45;8.07;;;;;;;;;;5025633;28;20410;-65
2021/11/25 08:27:22;;;;;;;22.38;8.25;;;;;;;;;;5012493;28;20084;-65
2021/11/25 08:29:51;;;;;;;21.40;7.63;;;;;;;;;;5030938;28;20054;-64
2021/11/25 08:32:20;;;;;;;23.02;9.18;;;;;;;;;;5013284;28;20413;-65
2021/11/25 08:34:49;;;;;;;25.63;8.85;;;;;;;;;;5011259;28;20052;-65
2021/11/25 08:37:18;;;;;;;22.10;9.20;;;;;;;;;;5014522;28;20128;-65
2021/11/25 08:39:49;;;;;;;19.70;8.38;;;;;;;;;;5024887;28;20095;-65
2021/11/25 08:42:19;;;;;;;21.92;8.18;;;;;;;;;;5020293;28;20038;-65
2021/11/25 08:44:48;;;;;;;21.48;8.48;;;;;;;;;;5011083;28;20081;-67
2021/11/25 08:47:17;;;;;;;23.35;8.52;;;;;;;;;;5019125;28;20132;-64
2021/11/25 08:49:46;;;;;;;19.45;7.72;;;;;;;;;;5026783;28;20064;-65
2021/11/25 08:52:15;;;;;;;20.13;7.97;;;;;;;;;;5011119;28;20121;-65
2021/11/25 08:54:43;;;;;;;25.38;8.63;;;;;;;;;;5012227;28;20546;-65
2021/11/25 08:57:12;;;;;;;21.48;8.90;;;;;;;;;;5017650;28;20497;-65
2021/11/25 08:59:44;;;;;;;22.60;8.32;;;;;;;;;;5013242;28;20037;-65
2021/11/25 09:02:14;;;;;;;20.63;8.65;;;;;;;;;;5014783;28;20077;-65
2021/11/25 09:04:44;;;;;;;22.55;9.40;;;;;;;;;;5010505;28;20049;-65
2021/11/25 09:07:13;;;;;;;26.92;9.45;;;;;;;;;;5022732;28;20128;-65
2021/11/25 09:09:41;;;;;;;18.15;7.63;;;;;;;;;;5024953;28;20512;-65
2021/11/25 09:12:10;;;;;;;19.52;8.40;;;;;;;;;;5010566;28;20057;-65
2021/11/25 09:14:40;;;;;;;19.85;7.80;;;;;;;;;;5026954;28;20529;-65
2021/11/25 09:17:13;;;;;;;23.83;8.50;;;;;;;;;;5023648;28;20045;-65
2021/11/25 09:19:42;;;;;;;17.30;7.60;;;;;;;;;;5007905;28;20050;-66
2021/11/25 09:22:10;;;;;;;17.80;8.15;;;;;;;;;;5015634;28;20103;-65
2021/11/25 09:24:40;;;;;;;21.35;8.15;;;;;;;;;;5008903;28;20049;-65
2021/11/25 09:27:09;;;;;;;19.38;7.28;;;;;;;;;;5017377;28;20053;-66
2021/11/25 09:29:37;;;;;;;25.13;8.70;;;;;;;;;;5018982;28;20485;-65
2021/11/25 09:32:07;;;;;;;20.90;8.48;;;;;;;;;;5015564;28;20050;-68
2021/11/25 09:34:38;;;;;;;22.02;8.45;;;;;;;;;;5009457;28;20046;-66
2021/11/25 09:37:07;;;;;;;18.55;7.75;;;;;;;;;;5005836;28;20060;-66
2021/11/25 09:39:37;;;;;;;24.10;9.00;;;;;;;;;;5023246;28;20084;-66
2021/11/25 09:42:06;;;;;;;25.00;9.13;;;;;;;;;;5010178;28;20049;-66
2021/11/25 09:44:35;;;;;;;21.65;8.82;;;;;;;;;;5029834;28;20526;-65
2021/11/25 09:47:04;;;;;;;23.30;8.18;;;;;;;;;;5001023;28;20145;-66
2021/11/25 09:49:32;;;;;;;23.58;9.18;;;;;;;;;;5001084;28;20422;-65
2021/11/25 09:52:02;;;;;;;24.08;9.05;;;;;;;;;;5010548;28;20050;-65
2021/11/25 09:54:31;;;;;;;21.20;8.30;;;;;;;;;;5009159;28;20107;-64
2021/11/25 09:57:00;;;;;;;17.17;8.13;;;;;;;;;;5010014;28;20053;-68
2021/11/25 09:59:28;;;;;;;20.27;8.82;;;;;;;;;;5006792;28;20099;-65
2021/11/25 10:01:58;;;;;;;20.50;8.75;;;;;;;;;;5010028;28;20046;-64
2021/11/25 10:04:28;;;;;;;24.80;8.65;;;;;;;;;;5013753;28;20060;-67
2021/11/25 10:06:59;;;;;;;21.73;8.73;;;;;;;;;;5011675;28;20059;-66
2021/11/25 10:09:36;;;;;;;25.10;9.68;;;;;;;;;;4998725;28;20046;-68
2021/11/25 10:12:20;;;;;;;23.92;9.75;;;;;;;;;;5005024;28;20683;-64
2021/11/25 10:14:48;;;;;;;26.23;9.30;;;;;;;;;;5003450;28;20409;-64
2021/11/25 10:17:17;;;;;;;25.55;9.95;;;;;;;;;;5007449;28;20175;-65
2021/11/25 10:20:05;;;;;;;24.15;9.55;;;;;;;;;;5005138;28;20042;-64
2021/11/25 10:22:34;;;;;;;23.40;8.98;;;;;;;;;;5006190;28;20072;-64
2021/11/25 10:25:04;;;;;;;26.63;9.45;;;;;;;;;;5001595;28;20073;-64
2021/11/25 10:27:32;;;;;;;25.40;9.27;;;;;;;;;;5008058;28;20050;-63
2021/11/25 10:30:10;;;;;;;29.27;11.73;;;;;;;;;;5007005;28;20128;-66
2021/11/25 10:32:39;;;;;;;24.50;10.20;;;;;;;;;;4992840;28;20046;-64
2021/11/25 10:35:22;;;;;;;27.95;9.75;;;;;;;;;;5009357;28;20053;-64
2021/11/25 10:38:20;;;;;;;25.52;9.75;;;;;;;;;;4993573;28;20175;-66
2021/11/25 10:40:44;;;;;;;26.10;10.30;;;;;;;;;;5012123;28;20045;-69
2021/11/25 10:43:20;;;;;;;28.02;9.93;;;;;;;;;;5011709;28;20060;-66
2021/11/25 10:45:50;;;;;;;27.98;10.23;;;;;;;;;;5008095;28;20165;-65
2021/11/25 10:48:27;;;;;;;28.90;10.35;;;;;;;;;;5017684;28;20034;-64
2021/11/25 10:50:56;;;;;;;29.98;10.98;;;;;;;;;;5013442;28;20390;-66
2021/11/25 10:53:24;;;;;;;25.45;9.75;;;;;;;;;;5015532;28;20057;-64
2021/11/25 10:56:04;;;;;;;28.50;9.85;;;;;;;;;;5013204;28;20041;-68
2021/11/25 10:58:50;;;;;;;28.25;9.35;;;;;;;;;;5014232;28;20048;-64
2021/11/25 11:01:32;;;;;;;24.25;9.48;;;;;;;;;;5012877;28;20107;-65
2021/11/25 11:04:01;;;;;;;27.58;9.02;;;;;;;;;;5019237;28;20290;-64
2021/11/25 11:06:31;;;;;;;20.38;7.63;;;;;;;;;;5004662;28;20081;-63
2021/11/25 11:08:59;;;;;;;26.27;9.85;;;;;;;;;;5017197;28;20764;-64
2021/11/25 11:11:30;;;;;;;24.25;9.15;;;;;;;;;;5014603;28;20081;-67
2021/11/25 11:14:16;;;;;;;21.35;8.80;;;;;;;;;;5017691;28;20477;-65
2021/11/25 11:16:48;;;;;;;21.27;8.93;;;;;;;;;;5024507;28;20049;-66
2021/11/25 11:19:17;;;;;;;26.48;8.85;;;;;;;;;;5012111;28;20081;-68
2021/11/25 11:21:48;;;;;;;26.67;9.02;;;;;;;;;;5012673;28;20075;-65
2021/11/25 11:24:18;;;;;;;23.00;8.85;;;;;;;;;;5013472;28;20056;-64
2021/11/25 11:26:49;;;;;;;21.23;8.55;;;;;;;;;;5012377;28;20085;-66
2021/11/25 11:29:18;;;;;;;22.58;8.68;;;;;;;;;;5010961;28;20778;-66
2021/11/25 11:31:47;;;;;;;23.63;8.43;;;;;;;;;;5010878;28;20111;-64
2021/11/25 11:34:17;;;;;;;22.67;7.85;;;;;;;;;;5004144;28;20140;-68
2021/11/25 11:36:47;;;;;;;23.08;9.13;;;;;;;;;;5013375;28;20053;-64
2021/11/25 11:39:17;;;;;;;21.70;9.20;;;;;;;;;;5007717;28;20057;-64
2021/11/25 11:41:49;;;;;;;22.30;8.25;;;;;;;;;;5026407;28;20136;-64
2021/11/25 11:44:20;;;;;;;21.85;8.40;;;;;;;;;;5023000;28;20517;-64
2021/11/25 11:46:49;;;;;;;25.33;9.43;;;;;;;;;;5008661;28;20040;-63
2021/11/25 11:49:20;;;;;;;23.88;8.13;;;;;;;;;;5020090;28;20054;-66
2021/11/25 11:52:00;;;;;;;22.35;8.63;;;;;;;;;;5015619;28;20147;-64
2021/11/25 11:54:28;;;;;;;25.35;9.15;;;;;;;;;;5015467;28;20588;-65
2021/11/25 11:56:58;;;;;;;24.90;9.07;;;;;;;;;;5014027;28;20103;-65
2021/11/25 11:59:38;;;;;;;26.13;9.02;;;;;;;;;;5010817;28;20458;-66
2021/11/25 12:02:06;;;;;;;26.70;9.15;;;;;;;;;;5010665;28;20073;-66
2021/11/25 12:04:43;;;;;;;25.23;9.00;;;;;;;;;;5015980;28;20053;-64
2021/11/25 12:07:25;;;;;;;22.33;9.07;;;;;;;;;;5024211;28;20050;-65
2021/11/25 12:09:54;;;;;;;26.52;9.77;;;;;;;;;;5017358;28;20058;-64
2021/11/25 12:12:24;;;;;;;27.13;9.88;;;;;;;;;;5005488;28;20522;-65
2021/11/25 12:14:54;;;;;;;27.92;9.52;;;;;;;;;;5007199;28;20101;-65
2021/11/25 12:17:28;;;;;;;27.13;10.40;;;;;;;;;;5009564;28;20046;-69
2021/11/25 12:19:57;;;;;;;26.50;9.82;;;;;;;;;;5009915;28;20052;-65
2021/11/25 12:22:28;;;;;;;24.42;8.85;;;;;;;;;;5009961;28;20493;-66
2021/11/25 12:24:59;;;;;;;30.15;10.77;;;;;;;;;;5009619;28;20456;-66
2021/11/25 12:27:40;;;;;;;30.92;11.13;;;;;;;;;;5004457;28;20169;-69
2021/11/25 12:30:12;;;;;;;24.45;9.15;;;;;;;;;;5009685;28;20500;-64
2021/11/25 12:32:52;;;;;;;31.80;10.45;;;;;;;;;;5007602;28;20397;-67
2021/11/25 12:35:37;;;;;;;33.45;10.43;;;;;;;;;;5007701;28;20046;-66
2021/11/25 12:38:08;;;;;;;29.80;10.90;;;;;;;;;;5011955;28;20481;-64
2021/11/25 12:41:01;;;;;;;26.88;10.18;;;;;;;;;;5003121;28;20054;-67
2021/11/25 12:43:32;;;;;;;27.08;9.52;;;;;;;;;;5012908;28;20064;-64
2021/11/25 12:46:05;;;;;;;28.30;9.68;;;;;;;;;;5002774;28;20104;-64
2021/11/25 12:48:35;;;;;;;30.48;9.68;;;;;;;;;;5013324;28;20207;-68
2021/11/25 12:51:06;;;;;;;25.10;10.20;;;;;;;;;;5007920;28;20050;-65
2021/11/25 12:53:36;;;;;;;31.15;10.68;;;;;;;;;;5001720;28;20045;-65
2021/11/25 12:56:07;;;;;;;22.42;8.68;;;;;;;;;;5006922;28;20120;-66
2021/11/25 12:58:45;;;;;;;31.75;11.00;;;;;;;;;;5011826;28;20053;-67
2021/11/25 13:01:16;;;;;;;31.65;10.30;;;;;;;;;;5006957;28;21478;-69
2021/11/25 13:03:45;;;;;;;31.63;10.10;;;;;;;;;;5006481;28;20070;-67
2021/11/25 13:06:17;;;;;;;26.70;10.13;;;;;;;;;;5002027;28;20081;-63
2021/11/25 13:08:46;;;;;;;31.30;10.32;;;;;;;;;;5006370;28;20483;-67
2021/11/25 13:11:17;;;;;;;29.08;10.43;;;;;;;;;;5009355;28;20057;-65
2021/11/25 13:13:48;;;;;;;28.63;9.77;;;;;;;;;;5012633;28;20057;-66
2021/11/25 13:16:17;;;;;;;32.25;9.65;;;;;;;;;;5020794;28;20129;-66
2021/11/25 13:18:48;;;;;;;34.00;11.35;;;;;;;;;;5009004;28;20046;-68
2021/11/25 13:21:19;;;;;;;27.60;9.63;;;;;;;;;;5002755;28;20403;-67
2021/11/25 13:23:52;;;;;;;25.85;10.63;;;;;;;;;;5006865;28;20047;-64
2021/11/25 13:26:21;;;;;;;30.98;10.95;;;;;;;;;;5013887;28;20057;-66
2021/11/25 13:28:52;;;;;;;27.48;9.55;;;;;;;;;;5010122;28;20099;-65
2021/11/25 13:31:22;;;;;;;29.95;10.27;;;;;;;;;;5006160;28;20053;-66
2021/11/25 13:33:55;;;;;;;34.55;10.73;;;;;;;;;;4999037;28;20393;-64
2021/11/25 13:36:26;;;;;;;30.80;10.07;;;;;;;;;;5023225;28;20489;-68
2021/11/25 13:38:55;;;;;;;27.90;9.57;;;;;;;;;;5007439;28;20574;-67
2021/11/25 13:41:25;;;;;;;31.38;11.77;;;;;;;;;;5004700;28;20585;-68
2021/11/25 13:43:56;;;;;;;28.42;10.35;;;;;;;;;;5004177;28;20161;-65
2021/11/25 13:46:34;;;;;;;29.92;10.20;;;;;;;;;;5007076;28;20776;-65
2021/11/25 13:49:04;;;;;;;24.55;9.60;;;;;;;;;;4997068;28;20084;-66
2021/11/25 13:51:33;;;;;;;29.00;10.05;;;;;;;;;;5005596;28;20049;-64
2021/11/25 13:54:07;;;;;;;28.65;9.57;;;;;;;;;;5013356;28;20061;-65
2021/11/25 13:56:36;;;;;;;27.02;10.65;;;;;;;;;;5006759;28;20052;-65
2021/11/25 13:59:08;;;;;;;26.75;9.20;;;;;;;;;;5012558;28;20054;-65
2021/11/25 14:01:36;;;;;;;26.75;9.82;;;;;;;;;;5009723;28;20049;-67
2021/11/25 14:04:06;;;;;;;30.25;9.55;;;;;;;;;;5006944;28;20049;-68
2021/11/25 14:06:36;;;;;;;28.52;9.90;;;;;;;;;;5001672;28;20058;-64
2021/11/25 14:09:07;;;;;;;26.90;9.15;;;;;;;;;;4994165;28;20042;-67
2021/11/25 14:11:36;;;;;;;23.90;9.50;;;;;;;;;;5013768;28;20049;-64
2021/11/25 14:14:08;;;;;;;23.08;9.65;;;;;;;;;;5027398;28;20056;-65
2021/11/25 14:16:46;;;;;;;27.60;10.40;;;;;;;;;;5012812;28;20046;-65
2021/11/25 14:19:18;;;;;;;26.73;10.68;;;;;;;;;;5016148;28;20100;-66
2021/11/25 14:21:49;;;;;;;26.80;9.20;;;;;;;;;;5005691;28;20081;-63
2021/11/25 14:24:20;;;;;;;26.75;9.00;;;;;;;;;;5007758;28;20046;-63
2021/11/25 14:27:11;;;;;;;24.92;9.75;;;;;;;;;;5009311;28;20053;-63
2021/11/25 14:32:30;;;;;;;26.45;8.73;;;;;;;;;;5022772;28;20418;-65
2021/11/25 14:34:59;;;;;;;24.33;8.75;;;;;;;;;;5011063;28;20065;-67
2021/11/25 14:37:29;;;;;;;38.53;10.57;;;;;;;;;;5007976;28;20092;-66
2021/11/25 14:39:58;;;;;;;36.13;10.52;;;;;;;;;;5015893;28;20140;-63
2021/11/25 14:42:28;;;;;;;30.95;10.52;;;;;;;;;;5015562;28;20139;-66
2021/11/25 14:45:09;;;;;;;23.88;9.45;;;;;;;;;;5016272;28;20057;-64
2021/11/25 14:47:42;;;;;;;23.10;8.88;;;;;;;;;;5002160;28;20121;-63